SV898 / HZ-AR22 7700 Squawk Report (7th of December, 2022)

Aircraft B789 Reg No. HZ-AR22 Age 4 years old
Model 787 Jet engines 2 First flight 14-03-18
Registered 22-03-18 Rollout N/A Delivered 22-03-18
Construction No. 40048 Line No. 0677 Series 9
ADSHEX 710411 Airline name Saudia Owner N/A
Airfield based Jeddah-King Abdulaziz International~Makkah~HZ First tracked N/A

Flight history for HZ-AR22

Route Flight No Date Playback
Malpensa (MXP) - King Abdulaziz Intl (JED) SV210 2023-02-05 19:14:00
King Abdulaziz Intl (JED) - Malpensa (MXP) SV211 2023-02-05 13:22:00
King Khaled Intl (RUH) - King Abdulaziz Intl (JED) SV1021 2023-02-05 08:59:00
Suvarnabhumi International (BKK) - King Khaled Intl (RUH) SV847 2023-02-05 00:15:00
King Khaled Intl (RUH) - Suvarnabhumi International (BKK) SV846 2023-02-04 16:32:00
Sir Seewoosagur Ramgoolam Intl (MRU) - King Abdulaziz Intl (JED) - King Khaled Intl (RUH) SV482 2023-02-04 04:21:00
King Khaled Intl (RUH) - King Abdulaziz Intl (JED) - Sir Seewoosagur Ramgoolam Intl (MRU) SV481 2023-02-03 14:37:00
Mohammed V International (CMN) - King Khaled Intl (RUH) SV374 2023-02-03 04:32:00
King Khaled Intl (RUH) - Mohammed V International (CMN) SV375 2023-02-02 20:01:00
King Abdulaziz Intl (JED) - King Khaled Intl (RUH) SV1020 2023-02-02 05:24:00
Dubai International (DXB) - King Abdulaziz Intl (JED) SV589 2023-01-30 16:09:00
King Abdulaziz Intl (JED) - Dubai International (DXB) SV588 2023-01-30 11:57:00
???? SV9552 2023-01-30 10:20:00
Heathrow (LHR) - NUM SV3106 2023-01-29 21:59:00
King Abdulaziz Intl (JED) - Heathrow (LHR) SV109 2023-01-29 13:57:00
Heathrow (LHR) - King Abdulaziz Intl (JED) SV116 2023-01-28 20:16:00
King Abdulaziz Intl (JED) - Heathrow (LHR) SV115 2023-01-28 14:54:00
King Khaled Intl (RUH) - King Abdulaziz Intl (JED) SV1055 2023-01-28 06:53:00
King Abdulaziz Intl (JED) - King Khaled Intl (RUH) SV1048 2023-01-27 19:55:00
Mohammed V International (CMN) - King Abdulaziz Intl (JED) SV376 2023-01-27 19:26:00
Time Lat Lon Altitude Heading Speed Vertical Rate
2022-12-07 03:10:31 GMT 24.902481 46.718292 2,700 330 167 -832
2022-12-07 03:10:28 GMT 24.900604 46.719463 2,750 331 168 -832
2022-12-07 03:10:19 GMT 24.894367 46.723454 2,875 331 172 -960
2022-12-07 03:10:08 GMT 24.886221 46.728584 3,050 330 177 -960
2022-12-07 03:09:58 GMT 24.878906 46.733196 3,200 331 182 -1024
2022-12-07 03:09:47 GMT 24.870905 46.738274 3,375 331 184 -1088
2022-12-07 03:09:38 GMT 24.863550 46.742889 3,525 331 188 -1024
2022-12-07 03:09:27 GMT 24.855776 46.747810 3,700 331 192 -1088
2022-12-07 03:09:16 GMT 24.847490 46.753098 3,875 331 196 -1088
2022-12-07 03:09:07 GMT 24.839064 46.758434 4,075 330 199 -1088
2022-12-07 03:08:56 GMT 24.831196 46.763409 4,250 330 199 -1152
2022-12-07 03:08:46 GMT 24.822418 46.768951 4,425 331 200 -1216
2022-12-07 03:08:36 GMT 24.813972 46.774292 4,650 330 199 -1152
2022-12-07 03:08:24 GMT 24.805710 46.779480 4,825 331 198 -896
2022-12-07 03:08:14 GMT 24.797493 46.784706 4,875 330 199 -64
2022-12-07 03:08:05 GMT 24.790649 46.789062 4,875 331 212 -64
2022-12-07 03:07:57 GMT 24.783005 46.793873 4,875 331 212 -64
2022-12-07 03:07:53 GMT 24.779755 46.795910 4,875 330 212 -64
2022-12-07 03:07:44 GMT 24.771881 46.800945 4,875 330 213 0
2022-12-07 03:07:33 GMT 24.762346 46.806992 4,900 330 213 -64
2022-12-07 03:07:24 GMT 24.755177 46.811604 4,875 330 213 -64
2022-12-07 03:07:14 GMT 24.746565 46.816994 4,900 331 213 -64
2022-12-07 03:07:04 GMT 24.737595 46.822357 4,900 334 213 0
2022-12-07 03:06:53 GMT 24.727936 46.827038 4,875 342 217 128
2022-12-07 03:06:43 GMT 24.717609 46.829170 4,875 0 224 -128
2022-12-07 03:06:33 GMT 24.707199 46.827442 4,875 12 227 -64
2022-12-07 03:06:22 GMT 24.696568 46.824871 4,875 12 227 0
2022-12-07 03:06:12 GMT 24.685629 46.822227 4,875 12 227 -64
2022-12-07 03:06:02 GMT 24.675430 46.819763 4,900 12 227 -64
2022-12-07 03:05:51 GMT 24.664673 46.817169 4,900 12 226 -64
2022-12-07 03:05:41 GMT 24.654205 46.814247 4,900 17 225 128
2022-12-07 03:05:31 GMT 24.644615 46.809273 4,900 37 224 -64
2022-12-07 03:05:21 GMT 24.637493 46.800514 4,900 62 220 0
2022-12-07 03:05:10 GMT 24.634369 46.789501 4,875 86 214 0
2022-12-07 03:04:59 GMT 24.635834 46.778107 4,875 110 208 0
2022-12-07 03:04:49 GMT 24.640915 46.769409 4,875 135 202 -128
2022-12-07 03:04:40 GMT 24.647921 46.763100 4,875 143 200 -64
2022-12-07 03:04:29 GMT 24.655741 46.756882 4,900 143 200 0
2022-12-07 03:04:19 GMT 24.663609 46.750610 4,900 143 200 0
2022-12-07 03:04:08 GMT 24.671570 46.744286 4,875 143 200 -64
2022-12-07 03:03:58 GMT 24.679184 46.738232 4,875 144 201 -64
2022-12-07 03:03:47 GMT 24.687241 46.731922 4,900 144 200 -64
2022-12-07 03:03:37 GMT 24.695114 46.725719 4,900 144 202 0
2022-12-07 03:03:27 GMT 24.702665 46.719776 4,900 144 201 -64
2022-12-07 03:03:16 GMT 24.710907 46.713257 4,875 144 201 0
2022-12-07 03:03:06 GMT 24.718643 46.707153 4,875 144 201 0
2022-12-07 03:02:56 GMT 24.726334 46.701050 4,875 144 201 0
2022-12-07 03:02:46 GMT 24.733749 46.695202 4,875 144 201 -64
2022-12-07 03:02:35 GMT 24.741806 46.688843 4,900 145 201 -448
2022-12-07 03:02:30 GMT 24.746006 46.685623 4,925 145 201 -704
2022-12-07 03:02:25 GMT 24.749590 46.682980 5,000 145 202 -1152
2022-12-07 03:02:15 GMT 24.757690 46.676865 5,200 145 204 -1216
2022-12-07 03:02:05 GMT 24.765558 46.671009 5,375 145 205 -1216
2022-12-07 03:01:54 GMT 24.773937 46.664791 5,575 145 205 -1152
2022-12-07 03:01:45 GMT 24.783096 46.658070 5,750 146 206 -960
2022-12-07 03:01:42 GMT 24.783993 46.657433 5,750 146 209 -768
2022-12-07 03:01:34 GMT 24.790192 46.652882 5,850 145 208 -640
2022-12-07 03:01:31 GMT 24.792513 46.651161 5,875 145 209 -448
2022-12-07 03:01:22 GMT 24.800751 46.644997 5,900 146 211 -64
2022-12-07 03:01:13 GMT 24.807175 46.640270 5,875 146 212 0
2022-12-07 03:01:03 GMT 24.815788 46.634010 5,900 146 218 -64
2022-12-07 03:01:00 GMT 24.817976 46.632404 5,900 146 219 0
2022-12-07 03:00:53 GMT 24.824261 46.627842 5,900 146 221 0
2022-12-07 03:00:46 GMT 24.830338 46.623333 5,900 146 221 0
2022-12-07 03:00:40 GMT 24.835758 46.619343 5,900 145 221 0
2022-12-07 03:00:30 GMT 24.844046 46.613125 5,900 145 219 0
2022-12-07 03:00:20 GMT 24.852493 46.606750 5,875 145 217 0
2022-12-07 03:00:11 GMT 24.859266 46.601620 5,875 145 217 64
2022-12-07 03:00:00 GMT 24.868515 46.594849 5,875 146 225 0
2022-12-07 02:59:51 GMT 24.877121 46.588337 5,875 145 231 -64
2022-12-07 02:59:40 GMT 24.886459 46.581219 5,925 145 230 -448
2022-12-07 02:59:30 GMT 24.895157 46.574757 6,050 145 231 -1152
2022-12-07 02:59:20 GMT 24.904190 46.568039 6,225 145 232 -1088
2022-12-07 02:59:10 GMT 24.913559 46.560974 6,375 145 233 -896
2022-12-07 02:58:59 GMT 24.923309 46.553650 6,500 145 237 -640
2022-12-07 02:58:49 GMT 24.932587 46.546688 6,575 145 243 -512
2022-12-07 02:58:39 GMT 24.942225 46.539486 6,675 145 249 -384
2022-12-07 02:58:28 GMT 24.952139 46.532074 6,700 145 257 -384
2022-12-07 02:58:18 GMT 24.962357 46.524456 6,800 145 260 -704
2022-12-07 02:58:07 GMT 24.972977 46.516521 6,925 145 261 -832
2022-12-07 02:57:57 GMT 24.982910 46.509064 7,050 145 261 -832
2022-12-07 02:57:47 GMT 24.993525 46.501083 7,175 145 261 -832
2022-12-07 02:57:37 GMT 25.003998 46.493259 7,300 145 263 -640
2022-12-07 02:57:27 GMT 25.014147 46.485641 7,400 145 264 -640
2022-12-07 02:57:15 GMT 25.025318 46.477299 7,525 145 265 -768
2022-12-07 02:57:05 GMT 25.035980 46.469421 7,650 145 265 -960
2022-12-07 02:56:56 GMT 25.045670 46.462200 7,825 145 264 -960
2022-12-07 02:56:45 GMT 25.056137 46.454391 7,875 145 265 0
2022-12-07 02:56:35 GMT 25.066864 46.446381 7,875 145 267 -64
2022-12-07 02:56:25 GMT 25.077412 46.438484 7,875 145 267 -64
2022-12-07 02:56:14 GMT 25.087784 46.430664 7,875 145 267 0
2022-12-07 02:56:04 GMT 25.098267 46.422832 7,875 145 267 -64
2022-12-07 02:55:54 GMT 25.109116 46.414745 7,875 145 267 -64
2022-12-07 02:55:43 GMT 25.119736 46.406757 7,875 145 266 0
2022-12-07 02:55:33 GMT 25.130173 46.398926 7,875 145 267 -64
2022-12-07 02:55:23 GMT 25.140839 46.390942 7,875 145 267 0
2022-12-07 02:55:12 GMT 25.151428 46.382980 7,875 145 267 -64
2022-12-07 02:55:02 GMT 25.161987 46.375072 7,900 145 267 0
2022-12-07 02:54:52 GMT 25.172379 46.367332 7,875 145 267 0
2022-12-07 02:54:41 GMT 25.183136 46.359253 7,875 145 267 -64
2022-12-07 02:54:31 GMT 25.193619 46.351421 7,875 145 267 0
2022-12-07 02:54:21 GMT 25.204330 46.343433 7,900 145 267 0
2022-12-07 02:54:11 GMT 25.214693 46.335720 7,875 145 267 -64
2022-12-07 02:53:57 GMT 25.228317 46.325531 7,875 145 266 0
2022-12-07 02:53:48 GMT 25.238113 46.318157 7,875 145 266 -64
2022-12-07 02:53:38 GMT 25.248398 46.310432 7,875 145 265 0
2022-12-07 02:53:27 GMT 25.259308 46.302235 7,900 145 265 0
2022-12-07 02:53:17 GMT 25.269287 46.294708 7,875 145 265 0
2022-12-07 02:52:41 GMT 25.305725 46.266987 7,900 143 266 -64
2022-12-07 02:52:23 GMT 25.323299 46.251614 7,900 140 268 -64
2022-12-07 02:51:41 GMT 25.363987 46.213989 7,875 139 272 0
2022-12-07 02:51:34 GMT 25.370453 46.207989 7,875 139 272 -64
2022-12-07 02:51:06 GMT 25.397781 46.182507 7,900 139 271 0
2022-12-07 02:51:03 GMT 25.400578 46.179890 7,900 139 271 0
2022-12-07 02:50:53 GMT 25.410398 46.170769 7,900 139 271 0
2022-12-07 02:50:08 GMT 25.453415 46.130192 7,900 135 272 0
2022-12-07 02:49:46 GMT 25.468826 46.104431 7,875 101 281 -64
2022-12-07 02:49:40 GMT 25.470200 46.096241 7,875 93 283 0
2022-12-07 02:49:24 GMT 25.467087 46.072742 7,875 77 286 0
2022-12-07 02:49:20 GMT 25.464958 46.067799 7,875 57 289 -128
2022-12-07 02:49:07 GMT 25.454020 46.053028 7,900 41 289 -64
2022-12-07 02:49:00 GMT 25.446121 46.047161 7,900 26 287 0
2022-12-07 02:48:48 GMT 25.431208 46.041679 7,875 4 283 0
2022-12-07 02:48:25 GMT 25.402222 46.046246 7,875 341 279 0
2022-12-07 02:48:14 GMT 25.387985 46.051788 7,875 341 280 -64
2022-12-07 02:48:06 GMT 25.378876 46.055347 7,875 341 282 0
2022-12-07 02:47:55 GMT 25.364918 46.060802 7,875 341 282 0
2022-12-07 02:47:46 GMT 25.354071 46.065105 7,900 341 282 -64
2022-12-07 02:47:35 GMT 25.340103 46.070606 7,875 341 282 0
2022-12-07 02:47:25 GMT 25.327629 46.075520 7,875 341 283 -64
2022-12-07 02:47:15 GMT 25.315109 46.080475 7,875 341 283 -64
2022-12-07 02:47:03 GMT 25.300964 46.086121 7,875 341 284 0
2022-12-07 02:46:54 GMT 25.289177 46.090809 7,875 341 284 -64
2022-12-07 02:46:44 GMT 25.276794 46.095730 7,900 341 283 0
2022-12-07 02:46:34 GMT 25.264690 46.100498 7,875 341 283 0
2022-12-07 02:46:23 GMT 25.251562 46.105732 7,875 341 283 -64
2022-12-07 02:46:13 GMT 25.238901 46.110760 7,875 341 283 -64
2022-12-07 02:46:03 GMT 25.226051 46.115837 7,900 341 282 -64
2022-12-07 02:45:52 GMT 25.213348 46.120911 7,875 340 283 -64
2022-12-07 02:45:42 GMT 25.200636 46.125996 7,875 340 283 0
2022-12-07 02:45:32 GMT 25.187668 46.131237 7,875 340 283 -64
2022-12-07 02:45:21 GMT 25.174938 46.136307 7,875 340 283 -64
2022-12-07 02:45:11 GMT 25.162601 46.141281 7,875 340 283 -64
2022-12-07 02:45:01 GMT 25.149473 46.146519 7,875 340 283 -64
2022-12-07 02:44:51 GMT 25.137138 46.151440 7,875 341 282 -64
2022-12-07 02:44:40 GMT 25.124176 46.156616 7,875 341 282 0
2022-12-07 02:44:30 GMT 25.111633 46.161602 7,900 341 282 0
2022-12-07 02:44:20 GMT 25.098919 46.166622 7,875 341 281 0
2022-12-07 02:44:10 GMT 25.086456 46.171520 7,875 341 282 0
2022-12-07 02:43:59 GMT 25.073410 46.176655 7,875 341 282 -64
2022-12-07 02:43:49 GMT 25.060593 46.181690 7,875 341 282 0
2022-12-07 02:43:37 GMT 25.045664 46.187611 7,875 341 282 64
2022-12-07 02:43:26 GMT 25.033218 46.192577 7,875 340 283 64
2022-12-07 02:43:16 GMT 25.020060 46.197872 7,875 340 282 -64
2022-12-07 02:43:06 GMT 25.007956 46.202744 7,875 340 283 0
2022-12-07 02:42:56 GMT 24.995544 46.207783 7,875 340 282 0
2022-12-07 02:42:45 GMT 24.982910 46.213055 7,900 339 282 -64
2022-12-07 02:42:35 GMT 24.970713 46.218964 7,900 333 280 64
2022-12-07 02:42:24 GMT 24.958796 46.227928 7,875 317 276 0
2022-12-07 02:42:14 GMT 24.950697 46.238400 7,875 306 274 0
2022-12-07 02:42:04 GMT 24.943155 46.250317 7,875 305 274 0
2022-12-07 02:41:54 GMT 24.935852 46.261951 7,900 305 274 0
2022-12-07 02:41:43 GMT 24.928299 46.273907 7,875 305 274 0
2022-12-07 02:41:32 GMT 24.920252 46.286644 7,875 305 274 -64
2022-12-07 02:41:23 GMT 24.913548 46.297268 7,875 305 274 0
2022-12-07 02:41:13 GMT 24.906006 46.309238 7,875 305 274 -64
2022-12-07 02:41:02 GMT 24.898325 46.321419 7,875 305 274 0
2022-12-07 02:40:52 GMT 24.891064 46.332973 7,900 305 274 0
2022-12-07 02:40:41 GMT 24.883026 46.345722 7,875 305 275 -64
2022-12-07 02:40:31 GMT 24.876022 46.356812 7,875 305 275 0
2022-12-07 02:40:16 GMT 24.864990 46.374359 7,875 305 275 0
2022-12-07 02:40:11 GMT 24.861036 46.380753 7,875 305 275 -64
2022-12-07 02:40:01 GMT 24.853636 46.392517 7,875 305 274 -64
2022-12-07 02:39:49 GMT 24.845675 46.405163 7,875 305 275 -64
2022-12-07 02:39:39 GMT 24.838211 46.417034 7,900 305 275 0
2022-12-07 02:39:30 GMT 24.831299 46.428120 7,875 305 274 -64
2022-12-07 02:39:19 GMT 24.823334 46.440784 7,900 305 274 0
2022-12-07 02:39:09 GMT 24.816345 46.451904 7,900 305 274 0
2022-12-07 02:38:59 GMT 24.808868 46.463776 7,875 305 275 0
2022-12-07 02:38:48 GMT 24.801270 46.475727 7,875 305 276 -64
2022-12-07 02:38:37 GMT 24.793396 46.488239 7,875 305 276 -64
2022-12-07 02:38:27 GMT 24.786087 46.500305 7,900 303 276 -64
2022-12-07 02:38:17 GMT 24.779846 46.512653 7,900 293 274 0
2022-12-07 02:38:07 GMT 24.776459 46.526592 7,900 275 271 0
2022-12-07 02:37:56 GMT 24.777191 46.540833 7,875 257 269 0
2022-12-07 02:37:46 GMT 24.781723 46.554157 7,875 242 268 0
2022-12-07 02:37:36 GMT 24.788275 46.566277 7,875 239 269 0
2022-12-07 02:37:25 GMT 24.795025 46.578144 7,875 239 269 0
2022-12-07 02:37:15 GMT 24.802008 46.590477 7,875 239 269 -64
2022-12-07 02:37:04 GMT 24.808851 46.602554 7,875 239 268 0
2022-12-07 02:36:57 GMT 24.813766 46.611279 7,875 239 268 -64
2022-12-07 02:36:54 GMT 24.815506 46.614277 7,875 239 268 0
2022-12-07 02:36:47 GMT 24.820583 46.623230 7,875 239 268 0
2022-12-07 02:36:44 GMT 24.822327 46.626331 7,875 239 268 0
2022-12-07 02:36:34 GMT 24.829056 46.638184 7,875 239 268 0
2022-12-07 02:36:27 GMT 24.833817 46.646526 7,875 238 267 0
2022-12-07 02:36:23 GMT 24.835922 46.650188 7,875 238 267 -64
2022-12-07 02:36:17 GMT 24.840363 46.658070 7,875 238 267 0
2022-12-07 02:36:13 GMT 24.842743 46.662243 7,875 238 267 0
2022-12-07 02:36:07 GMT 24.847675 46.670906 7,875 238 267 0
2022-12-07 02:36:03 GMT 24.849398 46.673912 7,900 238 267 -64
2022-12-07 02:35:56 GMT 24.853912 46.681873 7,875 239 267 0
2022-12-07 02:35:52 GMT 24.856241 46.685883 7,875 239 267 0
2022-12-07 02:35:45 GMT 24.861362 46.694901 7,875 239 267 0
2022-12-07 02:35:42 GMT 24.863113 46.697998 7,875 239 267 0
2022-12-07 02:35:35 GMT 24.868790 46.707966 7,875 239 267 0
2022-12-07 02:35:32 GMT 24.869843 46.709797 7,875 239 267 0
2022-12-07 02:35:25 GMT 24.874557 46.718140 7,875 239 268 0
2022-12-07 02:35:21 GMT 24.876863 46.722210 7,875 239 268 0
2022-12-07 02:35:14 GMT 24.881565 46.730553 7,875 239 268 0
2022-12-07 02:35:10 GMT 24.883759 46.734364 7,875 238 268 -64
2022-12-07 02:35:04 GMT 24.888748 46.742859 7,900 237 268 -64
2022-12-07 02:35:00 GMT 24.890533 46.745808 7,900 236 267 -64
2022-12-07 02:34:53 GMT 24.895763 46.753616 7,900 230 268 64
2022-12-07 02:34:50 GMT 24.898232 46.756725 7,900 224 268 0
2022-12-07 02:34:44 GMT 24.904724 46.762848 7,875 214 268 0
2022-12-07 02:34:32 GMT 24.917587 46.769360 7,875 196 269 0
2022-12-07 02:34:28 GMT 24.921982 46.770325 7,875 187 269 0
2022-12-07 02:34:22 GMT 24.929607 46.770767 7,875 176 270 -64
2022-12-07 02:34:18 GMT 24.934868 46.770248 7,875 171 271 0
2022-12-07 02:34:08 GMT 24.946884 46.766357 7,900 156 273 0
2022-12-07 02:33:59 GMT 24.957027 46.759624 7,900 141 276 -64
2022-12-07 02:33:48 GMT 24.966709 46.748329 7,875 122 279 -64
2022-12-07 02:33:38 GMT 24.972528 46.735580 7,875 108 282 0
2022-12-07 02:33:27 GMT 24.975037 46.720734 7,900 90 285 0
2022-12-07 02:33:17 GMT 24.973526 46.705730 7,900 74 286 -64
2022-12-07 02:33:07 GMT 24.968399 46.692303 7,900 58 286 0
2022-12-07 02:32:57 GMT 24.959820 46.680649 7,875 40 287 0
2022-12-07 02:32:46 GMT 24.947903 46.671841 7,875 24 287 0
2022-12-07 02:32:36 GMT 24.935349 46.667633 7,875 8 285 -64
2022-12-07 02:32:28 GMT 24.924271 46.667126 7,900 309 274 0
2022-12-07 02:32:25 GMT 24.921158 46.667530 7,875 351 281 0
2022-12-07 02:32:19 GMT 24.913176 46.669716 7,900 309 274 0
2022-12-07 02:32:15 GMT 24.908936 46.671497 7,875 335 278 -64
2022-12-07 02:32:05 GMT 24.897346 46.679611 7,900 320 275 -64
2022-12-07 02:31:58 GMT 24.891357 46.686249 7,900 309 274 0
2022-12-07 02:31:55 GMT 24.888641 46.690132 7,900 303 272 0
2022-12-07 02:31:48 GMT 24.884592 46.698112 7,900 293 272 0
2022-12-07 02:31:44 GMT 24.883026 46.702625 7,875 287 271 64
2022-12-07 02:31:39 GMT 24.881006 46.712208 7,875 279 273 64
2022-12-07 02:31:33 GMT 24.880262 46.718014 7,875 278 275 64
2022-12-07 02:31:28 GMT 24.879377 46.725578 7,875 277 279 -64
2022-12-07 02:31:23 GMT 24.878725 46.731487 7,875 277 279 -64
2022-12-07 02:31:17 GMT 24.877657 46.740814 7,875 277 279 -64
2022-12-07 02:31:13 GMT 24.877121 46.745708 7,875 277 278 0
2022-12-07 02:31:08 GMT 24.876068 46.755322 7,875 277 278 0
2022-12-07 02:31:02 GMT 24.875422 46.761700 7,875 277 278 -64
2022-12-07 02:30:57 GMT 24.874723 46.769318 7,875 276 279 0
2022-12-07 02:30:52 GMT 24.874237 46.775410 7,875 275 278 0
2022-12-07 02:30:46 GMT 24.873838 46.784035 7,875 272 279 -64
2022-12-07 02:30:42 GMT 24.873699 46.789684 7,900 271 278 0
2022-12-07 02:30:37 GMT 24.873734 46.799469 7,875 268 278 0
2022-12-07 02:30:32 GMT 24.873917 46.804302 7,875 267 277 0
2022-12-07 02:30:22 GMT 24.875839 46.818798 7,900 257 276 -64
2022-12-07 02:30:11 GMT 24.879749 46.832905 7,875 247 275 64
2022-12-07 02:30:05 GMT 24.884537 46.842346 7,875 235 275 0
2022-12-07 02:30:01 GMT 24.886414 46.845043 7,875 231 276 0
2022-12-07 02:29:55 GMT 24.891808 46.851196 7,875 221 275 0
2022-12-07 02:29:51 GMT 24.896072 46.855061 7,875 217 276 0
2022-12-07 02:29:43 GMT 24.904999 46.861164 7,900 209 277 0
2022-12-07 02:29:40 GMT 24.907356 46.862598 7,875 209 277 0
2022-12-07 02:29:34 GMT 24.915070 46.867371 7,900 213 276 0
2022-12-07 02:29:30 GMT 24.918732 46.869965 7,900 214 276 0
2022-12-07 02:29:20 GMT 24.930084 46.877136 7,875 204 276 0
2022-12-07 02:29:13 GMT 24.937683 46.880596 7,875 202 276 0
2022-12-07 02:29:09 GMT 24.942719 46.882782 7,875 202 276 -64
2022-12-07 02:29:03 GMT 24.951553 46.886646 7,875 202 276 -64
2022-12-07 02:28:59 GMT 24.954746 46.888096 7,875 202 276 -64
2022-12-07 02:28:54 GMT 24.962427 46.891460 7,875 202 276 0
2022-12-07 02:28:49 GMT 24.967175 46.893536 7,875 203 277 0
2022-12-07 02:28:38 GMT 24.979752 46.899109 7,875 203 277 -64
2022-12-07 02:28:31 GMT 24.989548 46.903431 7,875 202 277 -64
2022-12-07 02:28:28 GMT 24.992546 46.904728 7,875 201 277 -64
2022-12-07 02:28:21 GMT 25.001862 46.908417 7,900 198 277 0
2022-12-07 02:28:17 GMT 25.005569 46.909687 7,875 196 277 0
2022-12-07 02:28:07 GMT 25.018250 46.912079 7,875 182 279 64
2022-12-07 02:27:57 GMT 25.031279 46.910427 7,875 164 281 -64
2022-12-07 02:27:47 GMT 25.043242 46.904678 7,875 146 284 0
2022-12-07 02:27:36 GMT 25.053671 46.894882 7,875 129 286 0
2022-12-07 02:27:25 GMT 25.061537 46.880993 7,875 112 290 0
2022-12-07 02:27:15 GMT 25.065353 46.867416 7,875 101 291 -64
2022-12-07 02:27:05 GMT 25.068237 46.852112 7,875 101 291 -64
2022-12-07 02:26:54 GMT 25.071314 46.835598 7,900 101 292 -64
2022-12-07 02:26:43 GMT 25.074106 46.820675 7,900 101 293 -64
2022-12-07 02:26:34 GMT 25.076706 46.806744 7,900 101 293 -64
2022-12-07 02:26:23 GMT 25.079599 46.791134 7,900 101 291 256
2022-12-07 02:26:14 GMT 25.082207 46.777088 7,825 101 291 704
2022-12-07 02:26:03 GMT 25.085047 46.761700 7,675 101 289 1408
2022-12-07 02:25:52 GMT 25.087830 46.746216 7,375 100 288 1920
2022-12-07 02:25:43 GMT 25.090210 46.732025 7,050 98 289 2816
2022-12-07 02:25:32 GMT 25.091471 46.716667 6,550 88 288 2816
2022-12-07 02:25:21 GMT 25.089066 46.700897 6,050 70 288 3072
2022-12-07 02:25:11 GMT 25.083183 46.687958 5,550 53 289 3264
2022-12-07 02:25:01 GMT 25.073868 46.677143 5,025 36 290 2880
2022-12-07 02:24:50 GMT 25.061142 46.669617 4,625 17 285 1600
2022-12-07 02:24:40 GMT 25.048223 46.667175 4,400 0 273 1344
2022-12-07 02:24:28 GMT 25.033745 46.669819 4,200 343 257 832
2022-12-07 02:24:19 GMT 25.024529 46.674328 4,075 334 238 1088
2022-12-07 02:24:08 GMT 25.013351 46.680553 3,850 333 220 1152
2022-12-07 02:23:57 GMT 25.004150 46.685791 3,650 333 206 1664
2022-12-07 02:23:47 GMT 24.995636 46.690723 3,350 332 197 1792
We lost coverage of the aircraft here for a total of 101 minutes
2022-12-07 00:42:41 GMT 24.989101 46.663391 2,400 149 151 -832
2022-12-07 00:42:40 GMT 24.990005 46.662800 2,400 149 151 -832
2022-12-07 00:42:28 GMT 24.996918 46.658478 2,550 150 150 -896
2022-12-07 00:42:09 GMT 25.008654 46.651058 2,825 149 149 -832
2022-12-07 00:41:59 GMT 25.014679 46.647236 2,925 149 146 -704
2022-12-07 00:41:48 GMT 25.020803 46.643337 3,050 150 144 -832
2022-12-07 00:41:38 GMT 25.026764 46.639557 3,200 149 143 -768
2022-12-07 00:41:28 GMT 25.032715 46.635792 3,300 149 141 -768
2022-12-07 00:41:17 GMT 25.038666 46.632030 3,450 150 137 -832
2022-12-07 00:41:07 GMT 25.044388 46.628468 3,575 149 135 -704
2022-12-07 00:40:57 GMT 25.049561 46.625164 3,675 149 133 -704
2022-12-07 00:40:46 GMT 25.055300 46.621521 3,775 149 132 -704
2022-12-07 00:40:35 GMT 25.061398 46.617634 3,925 149 131 -896
2022-12-07 00:40:24 GMT 25.067030 46.614056 4,050 149 137 -768
2022-12-07 00:40:15 GMT 25.072523 46.610584 4,150 149 141 -704
2022-12-07 00:40:04 GMT 25.078714 46.606701 4,275 150 142 -832
2022-12-07 00:39:54 GMT 25.084534 46.603020 4,425 149 147 -896
2022-12-07 00:39:43 GMT 25.090679 46.599079 4,550 149 153 -832
2022-12-07 00:39:33 GMT 25.097197 46.594986 4,700 150 160 -896
2022-12-07 00:39:23 GMT 25.104038 46.590633 4,850 150 168 -960
2022-12-07 00:39:12 GMT 25.111115 46.586124 5,000 149 175 -1088
2022-12-07 00:39:02 GMT 25.118637 46.581371 5,175 149 182 -1024
2022-12-07 00:38:51 GMT 25.126617 46.576279 5,375 150 188 -1280
2022-12-07 00:38:42 GMT 25.133833 46.571720 5,575 150 185 -1152
2022-12-07 00:38:30 GMT 25.142258 46.566418 5,725 150 183 -576
2022-12-07 00:38:21 GMT 25.149307 46.561939 5,775 148 184 -576
2022-12-07 00:38:10 GMT 25.156736 46.556637 5,850 143 185 -576
2022-12-07 00:38:00 GMT 25.163393 46.550316 5,950 132 187 -576
2022-12-07 00:37:49 GMT 25.169073 46.541973 6,050 121 190 -640
2022-12-07 00:37:39 GMT 25.173729 46.533680 6,150 121 192 -640
2022-12-07 00:37:30 GMT 25.178335 46.525440 6,250 121 192 -640
2022-12-07 00:37:19 GMT 25.183228 46.516674 6,325 121 193 -576
2022-12-07 00:37:08 GMT 25.188400 46.507416 6,425 121 193 -576
2022-12-07 00:36:58 GMT 25.193344 46.498615 6,525 121 193 -576
2022-12-07 00:36:48 GMT 25.197842 46.490616 6,600 121 194 -512
2022-12-07 00:36:38 GMT 25.202957 46.481579 6,675 121 195 -512
2022-12-07 00:36:28 GMT 25.207571 46.473309 6,775 121 196 -576
2022-12-07 00:36:17 GMT 25.212645 46.464291 6,850 121 196 -576
2022-12-07 00:36:07 GMT 25.217743 46.455128 6,950 121 197 -576
2022-12-07 00:35:57 GMT 25.222412 46.446636 7,025 120 198 -576
2022-12-07 00:35:47 GMT 25.227310 46.437836 7,100 122 199 -512
2022-12-07 00:35:36 GMT 25.232071 46.428528 7,200 111 202 -512
2022-12-07 00:35:24 GMT 25.234451 46.416119 7,275 90 209 -512
2022-12-07 00:35:14 GMT 25.233170 46.405487 7,375 71 212 -512
2022-12-07 00:35:03 GMT 25.228846 46.395210 7,450 55 212 -512
2022-12-07 00:34:53 GMT 25.222095 46.387127 7,525 35 211 -576
2022-12-07 00:34:43 GMT 25.213390 46.381737 7,625 24 211 -576
2022-12-07 00:34:33 GMT 25.204313 46.377075 7,700 24 211 -512
2022-12-07 00:34:23 GMT 25.195312 46.372528 7,800 24 211 -512
2022-12-07 00:34:12 GMT 25.185785 46.367641 7,875 24 211 -512
2022-12-07 00:34:01 GMT 25.175636 46.362461 7,975 24 211 -576
2022-12-07 00:33:52 GMT 25.167629 46.358418 8,050 24 211 -576
2022-12-07 00:33:37 GMT 25.154222 46.351627 8,175 24 211 -576
2022-12-07 00:33:26 GMT 25.145096 46.347095 8,275 24 210 -576
2022-12-07 00:33:21 GMT 25.139923 46.344501 8,325 24 210 -640
2022-12-07 00:33:10 GMT 25.130768 46.339977 8,425 24 213 -640
2022-12-07 00:33:00 GMT 25.121544 46.335461 8,500 23 218 -512
2022-12-07 00:32:50 GMT 25.111813 46.330746 8,575 23 223 -448
2022-12-07 00:32:40 GMT 25.101944 46.326031 8,625 23 231 -320
2022-12-07 00:32:29 GMT 25.091749 46.321159 8,675 23 238 -320
2022-12-07 00:32:19 GMT 25.080780 46.315918 8,725 23 245 -512
2022-12-07 00:32:09 GMT 25.070023 46.310680 8,875 24 249 -1152
2022-12-07 00:31:59 GMT 25.059494 46.305286 9,025 26 252 -576
2022-12-07 00:31:48 GMT 25.048828 46.298573 9,100 35 258 -640
2022-12-07 00:31:38 GMT 25.039984 46.289444 9,225 53 260 -1088
2022-12-07 00:31:27 GMT 25.033373 46.277107 9,400 63 260 -1024
2022-12-07 00:31:17 GMT 25.028067 46.265087 9,550 64 264 -768
2022-12-07 00:31:07 GMT 25.022461 46.252441 9,650 64 272 -576
2022-12-07 00:30:57 GMT 25.016785 46.239521 9,725 64 279 -640
2022-12-07 00:30:46 GMT 25.010651 46.225739 9,850 64 288 -832
2022-12-07 00:30:36 GMT 25.004602 46.211967 9,975 64 295 -832
2022-12-07 00:30:26 GMT 24.998459 46.197926 10,125 64 304 -896
2022-12-07 00:30:14 GMT 24.991102 46.181290 10,275 64 312 -896
2022-12-07 00:30:04 GMT 24.984587 46.166573 10,450 64 317 -1472
2022-12-07 00:29:53 GMT 24.977875 46.151478 10,750 63 319 -2048
2022-12-07 00:29:43 GMT 24.971039 46.136204 11,100 63 318 -2304
2022-12-07 00:29:33 GMT 24.964462 46.121471 11,450 63 318 -2048
2022-12-07 00:29:22 GMT 24.957596 46.105957 11,800 64 321 -1856
2022-12-07 00:29:12 GMT 24.951050 46.091156 12,075 64 324 -1792
2022-12-07 00:29:02 GMT 24.944410 46.076092 12,350 64 329 -1728
2022-12-07 00:28:51 GMT 24.937010 46.059402 12,650 64 333 -1920
2022-12-07 00:28:41 GMT 24.930027 46.043858 12,975 63 335 -2048
2022-12-07 00:28:31 GMT 24.922989 46.028034 13,325 64 335 -2176
2022-12-07 00:28:20 GMT 24.915548 46.011311 13,675 63 336 -1920
2022-12-07 00:28:10 GMT 24.909170 45.997112 13,925 63 341 -1216
2022-12-07 00:28:00 GMT 24.901886 45.980885 14,075 63 350 -896
2022-12-07 00:27:50 GMT 24.894196 45.963795 14,250 63 359 -1088
2022-12-07 00:27:39 GMT 24.886642 45.946911 14,425 63 367 -1216
2022-12-07 00:27:29 GMT 24.878866 45.929432 14,600 64 375 -1088
2022-12-07 00:27:19 GMT 24.871078 45.911915 14,775 63 384 -1024
2022-12-07 00:27:08 GMT 24.862200 45.892223 14,950 63 394 -1152
2022-12-07 00:26:58 GMT 24.854286 45.874813 15,125 63 403 -1472
2022-12-07 00:26:48 GMT 24.845629 45.855431 15,375 64 411 -1664
2022-12-07 00:26:38 GMT 24.837112 45.836231 15,700 63 419 -2112
2022-12-07 00:26:27 GMT 24.828310 45.816357 16,100 64 425 -2432
2022-12-07 00:26:16 GMT 24.818674 45.794437 16,600 64 428 -3072
2022-12-07 00:26:06 GMT 24.810059 45.774994 17,100 63 430 -3136
2022-12-07 00:25:56 GMT 24.801224 45.755260 17,625 63 434 -3200
2022-12-07 00:25:46 GMT 24.791885 45.734608 18,200 63 437 -3392
2022-12-07 00:25:36 GMT 24.782688 45.713955 18,700 64 443 -2560
2022-12-07 00:25:25 GMT 24.773100 45.692295 19,100 63 452 -2432
2022-12-07 00:25:15 GMT 24.763641 45.671387 19,550 63 457 -3328
2022-12-07 00:25:03 GMT 24.752617 45.646896 20,150 63 462 -2752
2022-12-07 00:24:53 GMT 24.742996 45.625507 20,600 63 467 -3008
2022-12-07 00:24:43 GMT 24.732880 45.602825 21,150 63 470 -3584
2022-12-07 00:24:32 GMT 24.723038 45.580902 21,700 63 472 -2880
2022-12-07 00:24:22 GMT 24.713013 45.558880 22,100 64 478 -2240
2022-12-07 00:24:12 GMT 24.703550 45.536049 22,475 66 481 -1920
2022-12-07 00:24:02 GMT 24.694885 45.512543 22,725 69 489 -1472
2022-12-07 00:23:51 GMT 24.686966 45.487976 22,975 72 497 -1600
2022-12-07 00:23:41 GMT 24.679995 45.462978 23,250 74 503 -1664
2022-12-07 00:23:31 GMT 24.673965 45.437317 23,525 77 510 -1920
2022-12-07 00:23:20 GMT 24.668821 45.410069 23,925 79 514 -2496
2022-12-07 00:23:10 GMT 24.664539 45.384315 24,300 79 518 -2304
2022-12-07 00:22:59 GMT 24.660049 45.357006 24,650 79 523 -2176
2022-12-07 00:22:49 GMT 24.655693 45.330524 25,025 79 527 -2240
2022-12-07 00:22:39 GMT 24.650940 45.302784 25,400 79 531 -2304
2022-12-07 00:22:25 GMT 24.644754 45.266315 25,900 79 537 -2176
2022-12-07 00:22:17 GMT 24.640961 45.244038 26,175 79 539 -2176
2022-12-07 00:22:06 GMT 24.636375 45.216202 26,550 79 543 -2176
2022-12-07 00:21:33 GMT 24.621140 45.125378 27,675 79 556 -2112
2022-12-07 00:21:26 GMT 24.617661 45.104527 27,925 79 559 -2112
2022-12-07 00:21:00 GMT 24.605347 45.032299 28,825 79 572 -2240
2022-12-07 00:20:56 GMT 24.603277 45.020054 28,975 79 572 -2240
2022-12-07 00:20:46 GMT 24.598389 44.990932 29,325 79 576 -2240
2022-12-07 00:20:06 GMT 24.579529 44.875896 30,750 79 590 -2432
2022-12-07 00:20:04 GMT 24.578604 44.870289 30,850 79 590 -2432
2022-12-07 00:19:53 GMT 24.572937 44.836376 31,250 79 591 -2432
2022-12-07 00:19:34 GMT 24.563753 44.782345 31,675 79 592 -2560
2022-12-07 00:19:28 GMT 24.560394 44.762981 32,350 79 598 -3072
2022-12-07 00:19:22 GMT 24.557053 44.743908 32,650 79 599 -3072
2022-12-07 00:19:10 GMT 24.550999 44.709538 33,300 79 599 -3584
2022-12-07 00:18:59 GMT 24.545471 44.678192 33,850 79 600 -3264
2022-12-07 00:18:11 GMT 24.520386 44.531708 35,675 79 603 -2112
2022-12-07 00:18:06 GMT 24.517822 44.516651 35,825 79 603 -2112

Making use of Plane Finder data

You are free to use the raw flight data, aircraft information and images provided in this report for your own purposes provided the data is correctly attributed to Plane Finder. We ask that you please credit Plane Finder and link to planefinder.net in close proximity to the content.

Optionally one of the following logos (no smaller then 150x24px) can be used and must link to planefinder.net

Embedding the Plane Finder map

You are welcome to embed the Plane Finder playback map on your website to offer visitors a more interactive experience. We suggest using the following HTML code:

<iframe src="//planefinder.net/data/report/SV898-HZ-AR22-7700-squawk-2022-12-07/map" width="800" height="600" seamless="seamless"></iframe>

Where our data comes from

Plane Finder has a global network of data feeds and antenna radars that receive data broadcast directly from aircraft. The primary technologies used are ADS-B and MLAT. We also show feeds from the FAA and a FLARM glider feed.

Click here to find out more about the Plane Finder network.

How we collect our data